sensor_id;sensor_type;location;lat;lon;timestamp;temperature;humidity
32446;DHT22;18899;50.748;7.102;2023-03-13T00:00:16;12.00;99.90
32446;DHT22;18899;50.748;7.102;2023-03-13T00:02:42;12.10;99.90
32446;DHT22;18899;50.748;7.102;2023-03-13T00:05:10;12.00;99.90
32446;DHT22;18899;50.748;7.102;2023-03-13T00:07:36;12.00;99.90
32446;DHT22;18899;50.748;7.102;2023-03-13T00:10:01;12.00;99.90
32446;DHT22;18899;50.748;7.102;2023-03-13T00:12:27;12.00;99.90
32446;DHT22;18899;50.748;7.102;2023-03-13T00:14:53;12.10;99.90
32446;DHT22;18899;50.748;7.102;2023-03-13T00:17:19;12.10;99.90
32446;DHT22;18899;50.748;7.102;2023-03-13T00:19:44;12.10;99.90
32446;DHT22;18899;50.748;7.102;2023-03-13T00:22:10;12.20;99.90
32446;DHT22;18899;50.748;7.102;2023-03-13T00:24:36;12.20;99.90
32446;DHT22;18899;50.748;7.102;2023-03-13T00:27:01;12.20;99.90
32446;DHT22;18899;50.748;7.102;2023-03-13T00:29:31;12.10;99.90
32446;DHT22;18899;50.748;7.102;2023-03-13T00:31:57;12.30;99.90
32446;DHT22;18899;50.748;7.102;2023-03-13T00:34:23;12.40;99.90
32446;DHT22;18899;50.748;7.102;2023-03-13T00:36:52;12.40;99.90
32446;DHT22;18899;50.748;7.102;2023-03-13T00:39:17;12.40;99.90
32446;DHT22;18899;50.748;7.102;2023-03-13T00:41:43;12.30;99.90
32446;DHT22;18899;50.748;7.102;2023-03-13T00:44:09;12.40;99.90
32446;DHT22;18899;50.748;7.102;2023-03-13T00:46:35;12.40;99.90
32446;DHT22;18899;50.748;7.102;2023-03-13T00:49:00;12.50;99.90
32446;DHT22;18899;50.748;7.102;2023-03-13T00:51:27;12.40;99.90
32446;DHT22;18899;50.748;7.102;2023-03-13T00:53:56;12.40;99.90
32446;DHT22;18899;50.748;7.102;2023-03-13T00:56:25;12.30;99.90
32446;DHT22;18899;50.748;7.102;2023-03-13T00:58:50;12.40;99.90
32446;DHT22;18899;50.748;7.102;2023-03-13T01:01:22;12.20;99.90
32446;DHT22;18899;50.748;7.102;2023-03-13T01:03:50;12.10;99.90
32446;DHT22;18899;50.748;7.102;2023-03-13T01:06:18;11.90;99.90
32446;DHT22;18899;50.748;7.102;2023-03-13T01:08:45;11.70;99.90
32446;DHT22;18899;50.748;7.102;2023-03-13T01:11:13;11.70;99.90
32446;DHT22;18899;50.748;7.102;2023-03-13T01:13:40;11.60;99.90
32446;DHT22;18899;50.748;7.102;2023-03-13T01:16:09;11.80;99.90
32446;DHT22;18899;50.748;7.102;2023-03-13T01:18:37;11.90;99.90
32446;DHT22;18899;50.748;7.102;2023-03-13T01:21:04;12.00;99.90
32446;DHT22;18899;50.748;7.102;2023-03-13T01:23:30;11.90;99.90
32446;DHT22;18899;50.748;7.102;2023-03-13T01:25:56;11.80;99.90
32446;DHT22;18899;50.748;7.102;2023-03-13T01:28:22;11.70;99.90
32446;DHT22;18899;50.748;7.102;2023-03-13T01:30:49;11.80;99.90
32446;DHT22;18899;50.748;7.102;2023-03-13T01:33:15;11.80;99.90
32446;DHT22;18899;50.748;7.102;2023-03-13T01:35:41;11.80;99.90
32446;DHT22;18899;50.748;7.102;2023-03-13T01:38:06;11.90;99.90
32446;DHT22;18899;50.748;7.102;2023-03-13T01:40:45;12.00;99.90
32446;DHT22;18899;50.748;7.102;2023-03-13T01:43:23;12.10;99.90
32446;DHT22;18899;50.748;7.102;2023-03-13T01:51:27;12.20;99.90
32446;DHT22;18899;50.748;7.102;2023-03-13T01:53:59;12.30;99.90
32446;DHT22;18899;50.748;7.102;2023-03-13T01:56:36;12.30;99.90
32446;DHT22;18899;50.748;7.102;2023-03-13T01:59:05;12.40;99.90
32446;DHT22;18899;50.748;7.102;2023-03-13T02:01:33;12.30;99.90
32446;DHT22;18899;50.748;7.102;2023-03-13T02:03:59;12.40;99.90
32446;DHT22;18899;50.748;7.102;2023-03-13T02:06:28;12.40;99.90
32446;DHT22;18899;50.748;7.102;2023-03-13T02:09:00;12.50;99.90
32446;DHT22;18899;50.748;7.102;2023-03-13T02:11:52;12.50;99.90
32446;DHT22;18899;50.748;7.102;2023-03-13T02:14:21;12.60;99.90
32446;DHT22;18899;50.748;7.102;2023-03-13T02:16:47;12.60;99.90
32446;DHT22;18899;50.748;7.102;2023-03-13T02:19:49;12.50;99.90
32446;DHT22;18899;50.748;7.102;2023-03-13T02:27:42;12.60;99.90
32446;DHT22;18899;50.748;7.102;2023-03-13T02:30:10;12.50;99.90
32446;DHT22;18899;50.748;7.102;2023-03-13T02:32:36;12.50;99.90
32446;DHT22;18899;50.748;7.102;2023-03-13T02:35:07;12.50;99.90
32446;DHT22;18899;50.748;7.102;2023-03-13T02:37:33;12.60;99.90
32446;DHT22;18899;50.748;7.102;2023-03-13T02:40:03;12.50;99.90
32446;DHT22;18899;50.748;7.102;2023-03-13T02:42:30;12.40;99.90
32446;DHT22;18899;50.748;7.102;2023-03-13T02:44:56;12.40;99.90
32446;DHT22;18899;50.748;7.102;2023-03-13T02:47:23;12.30;99.90
32446;DHT22;18899;50.748;7.102;2023-03-13T02:49:49;12.10;99.90
32446;DHT22;18899;50.748;7.102;2023-03-13T02:52:30;12.00;99.90
32446;DHT22;18899;50.748;7.102;2023-03-13T02:55:02;11.80;99.90
32446;DHT22;18899;50.748;7.102;2023-03-13T02:57:29;11.80;99.90
32446;DHT22;18899;50.748;7.102;2023-03-13T02:59:56;11.80;99.90
32446;DHT22;18899;50.748;7.102;2023-03-13T03:02:21;11.80;99.90
32446;DHT22;18899;50.748;7.102;2023-03-13T03:04:47;11.80;99.90
32446;DHT22;18899;50.748;7.102;2023-03-13T03:07:12;11.80;99.90
32446;DHT22;18899;50.748;7.102;2023-03-13T03:09:38;11.80;99.90
32446;DHT22;18899;50.748;7.102;2023-03-13T03:12:04;11.90;99.90
32446;DHT22;18899;50.748;7.102;2023-03-13T03:14:30;11.80;99.90
32446;DHT22;18899;50.748;7.102;2023-03-13T03:16:55;11.90;99.90
32446;DHT22;18899;50.748;7.102;2023-03-13T03:19:21;11.90;99.90
32446;DHT22;18899;50.748;7.102;2023-03-13T03:21:46;11.90;99.90
32446;DHT22;18899;50.748;7.102;2023-03-13T03:24:13;12.00;99.90
32446;DHT22;18899;50.748;7.102;2023-03-13T03:26:39;12.00;99.90
32446;DHT22;18899;50.748;7.102;2023-03-13T03:29:05;12.00;99.90
32446;DHT22;18899;50.748;7.102;2023-03-13T03:31:32;12.10;99.90
32446;DHT22;18899;50.748;7.102;2023-03-13T03:33:57;12.20;99.90
32446;DHT22;18899;50.748;7.102;2023-03-13T03:36:23;12.20;99.90
32446;DHT22;18899;50.748;7.102;2023-03-13T03:38:49;12.30;99.90
32446;DHT22;18899;50.748;7.102;2023-03-13T03:41:15;12.30;99.90
32446;DHT22;18899;50.748;7.102;2023-03-13T03:43:41;12.30;99.90
32446;DHT22;18899;50.748;7.102;2023-03-13T03:46:08;12.40;99.90
32446;DHT22;18899;50.748;7.102;2023-03-13T03:48:34;12.40;99.90
32446;DHT22;18899;50.748;7.102;2023-03-13T03:51:00;12.40;99.90
32446;DHT22;18899;50.748;7.102;2023-03-13T03:53:26;12.40;99.90
32446;DHT22;18899;50.748;7.102;2023-03-13T03:55:52;12.40;99.90
32446;DHT22;18899;50.748;7.102;2023-03-13T03:58:18;12.50;99.90
32446;DHT22;18899;50.748;7.102;2023-03-13T04:00:45;12.60;99.90
32446;DHT22;18899;50.748;7.102;2023-03-13T04:03:11;12.60;99.90
32446;DHT22;18899;50.748;7.102;2023-03-13T04:05:36;12.70;99.90
32446;DHT22;18899;50.748;7.102;2023-03-13T04:08:02;12.60;99.90
32446;DHT22;18899;50.748;7.102;2023-03-13T04:10:28;12.60;99.90
32446;DHT22;18899;50.748;7.102;2023-03-13T04:12:53;12.60;99.90
32446;DHT22;18899;50.748;7.102;2023-03-13T04:15:19;12.60;99.90
32446;DHT22;18899;50.748;7.102;2023-03-13T04:17:44;12.50;99.90
32446;DHT22;18899;50.748;7.102;2023-03-13T04:20:10;12.50;99.90
32446;DHT22;18899;50.748;7.102;2023-03-13T04:22:38;12.60;99.90
32446;DHT22;18899;50.748;7.102;2023-03-13T04:25:04;12.60;99.90
32446;DHT22;18899;50.748;7.102;2023-03-13T04:27:29;12.60;99.90
32446;DHT22;18899;50.748;7.102;2023-03-13T04:29:56;12.50;99.90
32446;DHT22;18899;50.748;7.102;2023-03-13T04:32:21;12.50;99.90
32446;DHT22;18899;50.748;7.102;2023-03-13T04:34:47;12.50;99.90
32446;DHT22;18899;50.748;7.102;2023-03-13T04:37:12;12.50;99.90
32446;DHT22;18899;50.748;7.102;2023-03-13T04:39:38;12.50;99.90
32446;DHT22;18899;50.748;7.102;2023-03-13T04:42:03;12.60;99.90
32446;DHT22;18899;50.748;7.102;2023-03-13T04:44:29;12.80;99.90
32446;DHT22;18899;50.748;7.102;2023-03-13T04:46:54;12.80;99.90
32446;DHT22;18899;50.748;7.102;2023-03-13T04:49:20;13.00;99.90
32446;DHT22;18899;50.748;7.102;2023-03-13T04:51:45;13.10;99.90
32446;DHT22;18899;50.748;7.102;2023-03-13T04:54:11;13.10;99.90
32446;DHT22;18899;50.748;7.102;2023-03-13T04:56:37;13.10;99.90
32446;DHT22;18899;50.748;7.102;2023-03-13T04:59:03;13.10;99.90
32446;DHT22;18899;50.748;7.102;2023-03-13T05:01:28;13.20;99.90
32446;DHT22;18899;50.748;7.102;2023-03-13T05:03:54;13.20;99.90
32446;DHT22;18899;50.748;7.102;2023-03-13T05:06:20;13.40;99.90
32446;DHT22;18899;50.748;7.102;2023-03-13T05:08:45;13.30;99.90
32446;DHT22;18899;50.748;7.102;2023-03-13T05:11:11;13.30;99.90
32446;DHT22;18899;50.748;7.102;2023-03-13T05:13:36;13.40;99.90
32446;DHT22;18899;50.748;7.102;2023-03-13T05:16:02;13.50;99.90
32446;DHT22;18899;50.748;7.102;2023-03-13T05:18:28;13.50;99.90
32446;DHT22;18899;50.748;7.102;2023-03-13T05:20:53;13.50;99.90
32446;DHT22;18899;50.748;7.102;2023-03-13T05:23:19;13.50;99.90
32446;DHT22;18899;50.748;7.102;2023-03-13T05:25:44;13.60;99.90
32446;DHT22;18899;50.748;7.102;2023-03-13T05:28:10;13.60;99.90
32446;DHT22;18899;50.748;7.102;2023-03-13T05:30:36;13.50;99.90
32446;DHT22;18899;50.748;7.102;2023-03-13T05:33:01;13.50;99.90
32446;DHT22;18899;50.748;7.102;2023-03-13T05:35:27;13.50;99.90
32446;DHT22;18899;50.748;7.102;2023-03-13T05:37:52;13.60;99.90
32446;DHT22;18899;50.748;7.102;2023-03-13T05:40:18;13.50;99.90
32446;DHT22;18899;50.748;7.102;2023-03-13T05:42:44;13.40;99.90
32446;DHT22;18899;50.748;7.102;2023-03-13T05:45:10;13.40;99.90
32446;DHT22;18899;50.748;7.102;2023-03-13T05:47:36;13.60;99.90
32446;DHT22;18899;50.748;7.102;2023-03-13T05:50:04;13.60;99.90
32446;DHT22;18899;50.748;7.102;2023-03-13T05:52:29;13.50;99.90
32446;DHT22;18899;50.748;7.102;2023-03-13T05:54:55;13.60;99.90
32446;DHT22;18899;50.748;7.102;2023-03-13T05:57:20;13.60;99.90
32446;DHT22;18899;50.748;7.102;2023-03-13T05:59:46;13.60;99.90
32446;DHT22;18899;50.748;7.102;2023-03-13T06:02:11;13.60;99.90
32446;DHT22;18899;50.748;7.102;2023-03-13T06:04:37;13.70;99.90
32446;DHT22;18899;50.748;7.102;2023-03-13T06:07:03;13.80;99.90
32446;DHT22;18899;50.748;7.102;2023-03-13T06:09:28;13.80;99.90
32446;DHT22;18899;50.748;7.102;2023-03-13T06:11:54;13.90;99.90
32446;DHT22;18899;50.748;7.102;2023-03-13T06:14:19;14.00;99.90
32446;DHT22;18899;50.748;7.102;2023-03-13T06:16:45;14.00;99.90
32446;DHT22;18899;50.748;7.102;2023-03-13T06:19:10;14.00;99.90
32446;DHT22;18899;50.748;7.102;2023-03-13T06:21:36;14.10;99.90
32446;DHT22;18899;50.748;7.102;2023-03-13T06:24:02;14.10;99.90
32446;DHT22;18899;50.748;7.102;2023-03-13T06:26:28;14.20;99.90
32446;DHT22;18899;50.748;7.102;2023-03-13T06:28:53;14.20;99.90
32446;DHT22;18899;50.748;7.102;2023-03-13T06:31:19;14.30;99.90
32446;DHT22;18899;50.748;7.102;2023-03-13T06:33:45;14.30;99.90
32446;DHT22;18899;50.748;7.102;2023-03-13T06:36:11;14.30;99.90
32446;DHT22;18899;50.748;7.102;2023-03-13T06:38:36;14.30;99.90
32446;DHT22;18899;50.748;7.102;2023-03-13T06:41:02;14.30;99.90
32446;DHT22;18899;50.748;7.102;2023-03-13T06:43:28;14.40;99.90
32446;DHT22;18899;50.748;7.102;2023-03-13T06:45:54;14.40;99.90
32446;DHT22;18899;50.748;7.102;2023-03-13T06:48:20;14.70;99.90
32446;DHT22;18899;50.748;7.102;2023-03-13T06:50:47;14.70;99.90
32446;DHT22;18899;50.748;7.102;2023-03-13T06:53:15;14.80;99.90
32446;DHT22;18899;50.748;7.102;2023-03-13T06:55:41;14.90;99.90
32446;DHT22;18899;50.748;7.102;2023-03-13T06:58:07;15.00;99.90
32446;DHT22;18899;50.748;7.102;2023-03-13T07:00:33;14.90;99.90
32446;DHT22;18899;50.748;7.102;2023-03-13T07:02:59;14.90;99.90
32446;DHT22;18899;50.748;7.102;2023-03-13T07:05:24;14.80;99.90
32446;DHT22;18899;50.748;7.102;2023-03-13T07:07:50;14.80;99.90
32446;DHT22;18899;50.748;7.102;2023-03-13T07:10:15;14.80;99.90
32446;DHT22;18899;50.748;7.102;2023-03-13T07:12:41;14.90;99.90
32446;DHT22;18899;50.748;7.102;2023-03-13T07:15:07;14.90;99.90
32446;DHT22;18899;50.748;7.102;2023-03-13T07:17:34;14.90;99.90
32446;DHT22;18899;50.748;7.102;2023-03-13T07:19:59;14.90;99.90
32446;DHT22;18899;50.748;7.102;2023-03-13T07:22:25;14.80;99.90
32446;DHT22;18899;50.748;7.102;2023-03-13T07:24:50;14.90;99.90
32446;DHT22;18899;50.748;7.102;2023-03-13T07:27:16;15.00;99.90
32446;DHT22;18899;50.748;7.102;2023-03-13T07:29:42;15.10;99.90
32446;DHT22;18899;50.748;7.102;2023-03-13T07:32:07;15.10;99.90
32446;DHT22;18899;50.748;7.102;2023-03-13T07:34:33;15.10;99.90
32446;DHT22;18899;50.748;7.102;2023-03-13T07:36:58;15.10;99.90
32446;DHT22;18899;50.748;7.102;2023-03-13T07:39:24;15.20;99.90
32446;DHT22;18899;50.748;7.102;2023-03-13T07:41:49;15.20;99.90
32446;DHT22;18899;50.748;7.102;2023-03-13T07:44:15;15.30;99.90
32446;DHT22;18899;50.748;7.102;2023-03-13T07:46:40;15.30;99.90
32446;DHT22;18899;50.748;7.102;2023-03-13T07:49:06;15.30;99.90
32446;DHT22;18899;50.748;7.102;2023-03-13T07:51:31;15.30;99.90
32446;DHT22;18899;50.748;7.102;2023-03-13T07:53:57;15.30;99.90
32446;DHT22;18899;50.748;7.102;2023-03-13T07:56:23;15.50;99.90
32446;DHT22;18899;50.748;7.102;2023-03-13T07:58:49;15.50;99.90
32446;DHT22;18899;50.748;7.102;2023-03-13T08:01:20;15.70;99.90
32446;DHT22;18899;50.748;7.102;2023-03-13T08:03:46;15.80;99.90
32446;DHT22;18899;50.748;7.102;2023-03-13T08:06:17;15.80;99.90
32446;DHT22;18899;50.748;7.102;2023-03-13T08:08:43;15.90;99.90
32446;DHT22;18899;50.748;7.102;2023-03-13T08:11:14;15.90;99.90
32446;DHT22;18899;50.748;7.102;2023-03-13T08:13:40;16.10;99.90
32446;DHT22;18899;50.748;7.102;2023-03-13T08:16:11;16.20;99.90
32446;DHT22;18899;50.748;7.102;2023-03-13T08:18:37;16.20;99.90
32446;DHT22;18899;50.748;7.102;2023-03-13T08:21:08;16.20;99.90
32446;DHT22;18899;50.748;7.102;2023-03-13T08:23:35;16.20;99.90
32446;DHT22;18899;50.748;7.102;2023-03-13T08:26:11;16.10;99.90
32446;DHT22;18899;50.748;7.102;2023-03-13T08:28:38;16.00;99.90
32446;DHT22;18899;50.748;7.102;2023-03-13T08:33:38;16.10;99.90
32446;DHT22;18899;50.748;7.102;2023-03-13T08:36:17;16.10;99.90
32446;DHT22;18899;50.748;7.102;2023-03-13T08:38:45;16.00;99.90
32446;DHT22;18899;50.748;7.102;2023-03-13T08:41:19;15.90;99.90
32446;DHT22;18899;50.748;7.102;2023-03-13T08:43:46;15.80;99.90
32446;DHT22;18899;50.748;7.102;2023-03-13T08:46:12;15.80;99.90
32446;DHT22;18899;50.748;7.102;2023-03-13T08:48:38;15.70;99.90
32446;DHT22;18899;50.748;7.102;2023-03-13T08:53:35;15.70;99.90
32446;DHT22;18899;50.748;7.102;2023-03-13T08:56:02;15.80;99.90
32446;DHT22;18899;50.748;7.102;2023-03-13T08:58:32;15.80;99.90
32446;DHT22;18899;50.748;7.102;2023-03-13T09:01:12;15.80;99.90
32446;DHT22;18899;50.748;7.102;2023-03-13T09:03:39;15.80;99.90
32446;DHT22;18899;50.748;7.102;2023-03-13T09:06:05;15.90;99.90
32446;DHT22;18899;50.748;7.102;2023-03-13T09:08:31;16.00;99.90
32446;DHT22;18899;50.748;7.102;2023-03-13T09:11:07;16.00;99.90
32446;DHT22;18899;50.748;7.102;2023-03-13T09:13:38;16.20;99.90
32446;DHT22;18899;50.748;7.102;2023-03-13T09:16:07;16.40;99.90
32446;DHT22;18899;50.748;7.102;2023-03-13T09:18:35;16.50;99.90
32446;DHT22;18899;50.748;7.102;2023-03-13T09:21:02;16.60;99.90
32446;DHT22;18899;50.748;7.102;2023-03-13T09:23:28;16.60;99.90
32446;DHT22;18899;50.748;7.102;2023-03-13T09:25:55;16.80;99.90
32446;DHT22;18899;50.748;7.102;2023-03-13T09:28:24;16.90;99.90
32446;DHT22;18899;50.748;7.102;2023-03-13T09:30:52;16.90;99.90
32446;DHT22;18899;50.748;7.102;2023-03-13T09:33:20;16.90;99.90
32446;DHT22;18899;50.748;7.102;2023-03-13T09:35:48;16.70;99.90
32446;DHT22;18899;50.748;7.102;2023-03-13T09:38:20;16.60;99.90
32446;DHT22;18899;50.748;7.102;2023-03-13T09:40:47;16.40;99.90
32446;DHT22;18899;50.748;7.102;2023-03-13T09:45:49;16.70;99.90
32446;DHT22;18899;50.748;7.102;2023-03-13T09:48:27;16.60;99.90
32446;DHT22;18899;50.748;7.102;2023-03-13T09:53:51;16.50;99.90
32446;DHT22;18899;50.748;7.102;2023-03-13T09:56:28;16.40;99.90
32446;DHT22;18899;50.748;7.102;2023-03-13T09:59:04;16.50;99.90
32446;DHT22;18899;50.748;7.102;2023-03-13T10:01:34;16.40;99.90
32446;DHT22;18899;50.748;7.102;2023-03-13T10:06:43;16.60;99.90
32446;DHT22;18899;50.748;7.102;2023-03-13T10:09:19;16.60;99.90
32446;DHT22;18899;50.748;7.102;2023-03-13T10:11:50;16.70;99.90
32446;DHT22;18899;50.748;7.102;2023-03-13T10:14:28;16.60;99.90
32446;DHT22;18899;50.748;7.102;2023-03-13T10:20:00;16.80;99.90
32446;DHT22;18899;50.748;7.102;2023-03-13T10:22:28;16.90;99.90
32446;DHT22;18899;50.748;7.102;2023-03-13T10:25:07;16.70;99.90
32446;DHT22;18899;50.748;7.102;2023-03-13T10:27:48;16.90;99.90
32446;DHT22;18899;50.748;7.102;2023-03-13T10:30:31;16.80;99.90
32446;DHT22;18899;50.748;7.102;2023-03-13T10:33:20;16.80;99.90
32446;DHT22;18899;50.748;7.102;2023-03-13T10:35:44;16.80;99.90
32446;DHT22;18899;50.748;7.102;2023-03-13T10:38:17;16.80;99.90
32446;DHT22;18899;50.748;7.102;2023-03-13T10:40:47;16.70;99.90
32446;DHT22;18899;50.748;7.102;2023-03-13T10:43:20;16.70;99.90
32446;DHT22;18899;50.748;7.102;2023-03-13T10:45:46;16.70;99.90
32446;DHT22;18899;50.748;7.102;2023-03-13T10:48:21;16.90;99.90
32446;DHT22;18899;50.748;7.102;2023-03-13T10:50:49;16.90;99.90
32446;DHT22;18899;50.748;7.102;2023-03-13T10:55:52;17.00;99.90
32446;DHT22;18899;50.748;7.102;2023-03-13T10:58:43;16.90;99.90
32446;DHT22;18899;50.748;7.102;2023-03-13T11:01:21;17.10;99.90
32446;DHT22;18899;50.748;7.102;2023-03-13T11:03:48;17.10;99.90
32446;DHT22;18899;50.748;7.102;2023-03-13T11:06:32;17.20;99.90
32446;DHT22;18899;50.748;7.102;2023-03-13T11:11:24;17.40;99.90
32446;DHT22;18899;50.748;7.102;2023-03-13T11:14:15;17.40;99.90
32446;DHT22;18899;50.748;7.102;2023-03-13T11:17:01;17.40;99.90
32446;DHT22;18899;50.748;7.102;2023-03-13T11:24:59;18.20;99.90
32446;DHT22;18899;50.748;7.102;2023-03-13T11:28:04;18.30;99.90
32446;DHT22;18899;50.748;7.102;2023-03-13T11:33:18;18.50;99.90
32446;DHT22;18899;50.748;7.102;2023-03-13T11:35:59;18.80;99.90
32446;DHT22;18899;50.748;7.102;2023-03-13T11:38:34;18.70;99.90
32446;DHT22;18899;50.748;7.102;2023-03-13T11:41:41;18.80;99.90
32446;DHT22;18899;50.748;7.102;2023-03-13T11:55:45;19.00;99.90
32446;DHT22;18899;50.748;7.102;2023-03-13T12:03:42;19.10;99.90
32446;DHT22;18899;50.748;7.102;2023-03-13T12:08:54;19.10;99.90
32446;DHT22;18899;50.748;7.102;2023-03-13T12:11:26;18.90;99.90
32446;DHT22;18899;50.748;7.102;2023-03-13T12:14:21;18.90;99.90
32446;DHT22;18899;50.748;7.102;2023-03-13T12:16:54;19.00;99.90
32446;DHT22;18899;50.748;7.102;2023-03-13T12:19:37;19.40;99.90
32446;DHT22;18899;50.748;7.102;2023-03-13T12:22:30;19.30;99.90
32446;DHT22;18899;50.748;7.102;2023-03-13T12:24:58;19.30;99.90
32446;DHT22;18899;50.748;7.102;2023-03-13T12:27:45;19.30;99.90
32446;DHT22;18899;50.748;7.102;2023-03-13T12:30:42;19.30;99.90
32446;DHT22;18899;50.748;7.102;2023-03-13T12:33:33;19.20;99.90
32446;DHT22;18899;50.748;7.102;2023-03-13T12:42:12;18.90;99.90
32446;DHT22;18899;50.748;7.102;2023-03-13T12:44:41;18.80;99.90
32446;DHT22;18899;50.748;7.102;2023-03-13T12:47:24;18.40;99.90
32446;DHT22;18899;50.748;7.102;2023-03-13T12:50:25;18.30;99.90
32446;DHT22;18899;50.748;7.102;2023-03-13T12:53:09;18.50;99.90
32446;DHT22;18899;50.748;7.102;2023-03-13T12:56:14;18.50;99.90
32446;DHT22;18899;50.748;7.102;2023-03-13T12:59:13;18.60;99.90
32446;DHT22;18899;50.748;7.102;2023-03-13T13:01:46;18.50;99.90
32446;DHT22;18899;50.748;7.102;2023-03-13T13:04:14;18.40;99.90
32446;DHT22;18899;50.748;7.102;2023-03-13T13:11:59;18.00;99.90
32446;DHT22;18899;50.748;7.102;2023-03-13T13:16:58;18.30;99.90
32446;DHT22;18899;50.748;7.102;2023-03-13T13:24:58;17.90;99.90
32446;DHT22;18899;50.748;7.102;2023-03-13T13:27:45;17.90;99.90
32446;DHT22;18899;50.748;7.102;2023-03-13T13:32:53;18.00;99.90
32446;DHT22;18899;50.748;7.102;2023-03-13T13:35:33;18.30;99.90
32446;DHT22;18899;50.748;7.102;2023-03-13T13:41:21;18.90;99.90
32446;DHT22;18899;50.748;7.102;2023-03-13T13:43:49;19.00;99.90
32446;DHT22;18899;50.748;7.102;2023-03-13T13:46:26;19.00;99.90
32446;DHT22;18899;50.748;7.102;2023-03-13T13:51:30;18.80;99.90
32446;DHT22;18899;50.748;7.102;2023-03-13T13:54:02;18.60;99.90
32446;DHT22;18899;50.748;7.102;2023-03-13T13:56:29;18.80;99.90
32446;DHT22;18899;50.748;7.102;2023-03-13T14:01:42;18.90;99.90
32446;DHT22;18899;50.748;7.102;2023-03-13T14:04:13;18.70;99.90
32446;DHT22;18899;50.748;7.102;2023-03-13T14:06:41;18.60;99.90
32446;DHT22;18899;50.748;7.102;2023-03-13T14:09:41;18.60;99.90
32446;DHT22;18899;50.748;7.102;2023-03-13T14:12:36;18.70;99.90
32446;DHT22;18899;50.748;7.102;2023-03-13T14:15:14;18.90;99.90
32446;DHT22;18899;50.748;7.102;2023-03-13T14:17:49;18.80;99.90
32446;DHT22;18899;50.748;7.102;2023-03-13T14:23:03;18.80;99.90
32446;DHT22;18899;50.748;7.102;2023-03-13T14:25:48;18.70;99.90
32446;DHT22;18899;50.748;7.102;2023-03-13T14:28:22;18.50;99.90
32446;DHT22;18899;50.748;7.102;2023-03-13T14:30:51;18.50;99.90
32446;DHT22;18899;50.748;7.102;2023-03-13T14:33:17;18.60;99.90
32446;DHT22;18899;50.748;7.102;2023-03-13T14:35:43;18.50;99.90
32446;DHT22;18899;50.748;7.102;2023-03-13T14:38:36;18.60;99.90
32446;DHT22;18899;50.748;7.102;2023-03-13T14:41:02;18.60;99.90
32446;DHT22;18899;50.748;7.102;2023-03-13T14:43:32;18.60;99.90
32446;DHT22;18899;50.748;7.102;2023-03-13T14:45:59;18.50;99.90
32446;DHT22;18899;50.748;7.102;2023-03-13T14:48:32;18.20;99.90
32446;DHT22;18899;50.748;7.102;2023-03-13T14:51:07;17.90;99.90
32446;DHT22;18899;50.748;7.102;2023-03-13T14:53:33;17.80;99.90
32446;DHT22;18899;50.748;7.102;2023-03-13T14:56:11;18.00;99.90
32446;DHT22;18899;50.748;7.102;2023-03-13T14:58:37;17.90;99.90
32446;DHT22;18899;50.748;7.102;2023-03-13T15:01:13;17.90;99.90
32446;DHT22;18899;50.748;7.102;2023-03-13T15:03:44;17.80;99.90
32446;DHT22;18899;50.748;7.102;2023-03-13T15:08:38;17.60;99.90
32446;DHT22;18899;50.748;7.102;2023-03-13T15:11:21;17.50;99.90
32446;DHT22;18899;50.748;7.102;2023-03-13T15:13:49;17.30;99.90
32446;DHT22;18899;50.748;7.102;2023-03-13T15:16:17;17.30;99.90
32446;DHT22;18899;50.748;7.102;2023-03-13T15:18:45;17.30;99.90
32446;DHT22;18899;50.748;7.102;2023-03-13T15:23:55;17.40;99.90
32446;DHT22;18899;50.748;7.102;2023-03-13T15:26:23;17.40;99.90
32446;DHT22;18899;50.748;7.102;2023-03-13T15:28:49;17.50;99.90
32446;DHT22;18899;50.748;7.102;2023-03-13T15:31:15;17.60;99.90
32446;DHT22;18899;50.748;7.102;2023-03-13T15:33:42;17.60;99.90
32446;DHT22;18899;50.748;7.102;2023-03-13T15:36:08;17.60;99.90
32446;DHT22;18899;50.748;7.102;2023-03-13T15:38:34;17.70;99.90
32446;DHT22;18899;50.748;7.102;2023-03-13T15:41:00;17.70;99.90
32446;DHT22;18899;50.748;7.102;2023-03-13T15:43:25;17.70;99.90
32446;DHT22;18899;50.748;7.102;2023-03-13T15:45:51;17.60;99.90
32446;DHT22;18899;50.748;7.102;2023-03-13T15:48:22;17.60;99.90
32446;DHT22;18899;50.748;7.102;2023-03-13T15:50:52;17.50;99.90
32446;DHT22;18899;50.748;7.102;2023-03-13T15:53:24;17.50;99.90
32446;DHT22;18899;50.748;7.102;2023-03-13T15:55:52;17.40;99.90
32446;DHT22;18899;50.748;7.102;2023-03-13T15:58:18;17.40;99.90
32446;DHT22;18899;50.748;7.102;2023-03-13T16:00:44;17.40;99.90
32446;DHT22;18899;50.748;7.102;2023-03-13T16:03:19;17.50;99.90
32446;DHT22;18899;50.748;7.102;2023-03-13T16:05:46;17.50;99.90
32446;DHT22;18899;50.748;7.102;2023-03-13T16:08:21;17.50;99.90
32446;DHT22;18899;50.748;7.102;2023-03-13T16:10:47;17.50;99.90
32446;DHT22;18899;50.748;7.102;2023-03-13T16:13:13;17.40;99.90
32446;DHT22;18899;50.748;7.102;2023-03-13T16:15:41;17.30;99.90
32446;DHT22;18899;50.748;7.102;2023-03-13T16:18:28;17.30;99.90
32446;DHT22;18899;50.748;7.102;2023-03-13T16:20:53;17.40;99.90
32446;DHT22;18899;50.748;7.102;2023-03-13T16:23:19;17.40;99.90
32446;DHT22;18899;50.748;7.102;2023-03-13T16:25:45;17.40;99.90
32446;DHT22;18899;50.748;7.102;2023-03-13T16:28:12;17.40;99.90
32446;DHT22;18899;50.748;7.102;2023-03-13T16:30:39;17.40;99.90
32446;DHT22;18899;50.748;7.102;2023-03-13T16:33:08;17.30;99.90
32446;DHT22;18899;50.748;7.102;2023-03-13T16:35:34;17.30;98.80
32446;DHT22;18899;50.748;7.102;2023-03-13T16:37:59;17.20;97.50
32446;DHT22;18899;50.748;7.102;2023-03-13T16:40:29;17.10;98.90
32446;DHT22;18899;50.748;7.102;2023-03-13T16:42:56;17.10;98.10
32446;DHT22;18899;50.748;7.102;2023-03-13T16:45:21;17.00;98.20
32446;DHT22;18899;50.748;7.102;2023-03-13T16:47:47;16.90;99.20
32446;DHT22;18899;50.748;7.102;2023-03-13T16:52:48;16.80;99.90
32446;DHT22;18899;50.748;7.102;2023-03-13T16:55:13;16.70;99.90
32446;DHT22;18899;50.748;7.102;2023-03-13T16:57:39;16.60;99.90
32446;DHT22;18899;50.748;7.102;2023-03-13T17:00:15;16.50;99.90
32446;DHT22;18899;50.748;7.102;2023-03-13T17:02:41;16.40;99.90
32446;DHT22;18899;50.748;7.102;2023-03-13T17:05:06;16.30;99.90
32446;DHT22;18899;50.748;7.102;2023-03-13T17:07:32;16.40;99.90
32446;DHT22;18899;50.748;7.102;2023-03-13T17:09:57;16.40;99.90
32446;DHT22;18899;50.748;7.102;2023-03-13T17:12:23;16.30;99.90
32446;DHT22;18899;50.748;7.102;2023-03-13T17:14:48;16.30;99.90
32446;DHT22;18899;50.748;7.102;2023-03-13T17:17:17;16.20;99.90
32446;DHT22;18899;50.748;7.102;2023-03-13T17:19:43;16.10;99.90
32446;DHT22;18899;50.748;7.102;2023-03-13T17:22:12;16.10;99.90
32446;DHT22;18899;50.748;7.102;2023-03-13T17:24:39;16.10;99.90